createdAt,value
2019-05-21T00:02:28.655Z,96988.82
2019-05-21T00:06:33.553Z,96990.36
2019-05-21T00:10:38.462Z,96982.94
2019-05-21T00:14:43.367Z,96979.68
2019-05-21T00:18:48.265Z,96981.78
2019-05-21T00:22:53.158Z,96982.19
2019-05-21T00:26:58.057Z,96981.00
2019-05-21T00:31:39.179Z,96981.00
2019-05-21T00:36:23.380Z,96983.72
2019-05-21T00:41:04.559Z,96984.66
2019-05-21T00:45:11.990Z,96977.92
2019-05-21T00:49:16.888Z,96974.73
2019-05-21T00:53:21.780Z,96972.66
2019-05-21T00:57:26.681Z,96967.41
2019-05-21T01:01:31.589Z,96971.59
2019-05-21T01:05:36.499Z,96970.03
2019-05-21T01:09:41.401Z,96966.47
2019-05-21T01:13:46.298Z,96963.93
2019-05-21T01:17:51.199Z,96960.98
2019-05-21T01:21:56.111Z,96959.30
2019-05-21T01:26:01.010Z,96942.80
2019-05-21T01:30:07.448Z,96942.58
2019-05-21T01:34:12.344Z,96935.84
2019-05-21T01:38:17.250Z,96936.22
2019-05-21T01:42:22.151Z,96931.05
2019-05-21T01:46:27.054Z,96923.48
2019-05-21T01:50:31.966Z,96920.48
2019-05-21T01:54:36.864Z,96912.12
2019-05-21T01:58:41.760Z,96898.50
2019-05-21T02:02:46.669Z,96920.85
2019-05-21T02:06:51.568Z,96919.28
2019-05-21T02:10:56.473Z,96912.81
2019-05-21T02:15:01.367Z,96916.38
2019-05-21T02:19:06.314Z,96913.03
2019-05-21T02:23:11.180Z,96901.54
2019-05-21T02:27:16.083Z,96911.24
2019-05-21T02:31:20.980Z,96899.51
2019-05-21T02:35:25.870Z,96901.38
2019-05-21T02:39:30.767Z,96906.64
2019-05-21T02:43:35.673Z,96883.20
2019-05-21T02:47:40.572Z,96895.81
2019-05-21T02:51:45.475Z,96885.05
2019-05-21T02:55:50.376Z,96894.44
2019-05-21T02:59:56.925Z,96875.50
2019-05-21T03:04:01.836Z,96882.36
2019-05-21T03:08:06.725Z,96884.05
2019-05-21T03:12:11.638Z,96879.85
2019-05-21T03:16:17.606Z,96888.11
2019-05-21T03:20:22.493Z,96887.83
2019-05-21T03:24:27.394Z,96895.64
2019-05-21T03:28:32.293Z,96895.95
2019-05-21T03:32:37.269Z,96900.58
2019-05-21T03:36:42.171Z,96915.88
2019-05-21T03:40:47.078Z,96910.29
2019-05-21T03:44:59.937Z,96901.96
2019-05-21T03:48:58.659Z,96906.11
2019-05-21T03:53:03.559Z,96906.80
2019-05-21T03:57:08.454Z,96907.17
2019-05-21T04:01:13.364Z,96918.14
2019-05-21T04:05:24.530Z,96921.91
2019-05-21T04:09:30.400Z,96910.66
2019-05-21T04:13:35.306Z,96918.16
2019-05-21T04:17:41.859Z,96908.41
2019-05-21T04:21:46.777Z,96919.68
2019-05-21T04:25:51.664Z,96924.84
2019-05-21T04:29:56.569Z,96927.64
2019-05-21T04:34:01.475Z,96926.11
2019-05-21T04:38:06.366Z,96939.45
2019-05-21T04:42:11.269Z,96939.45
2019-05-21T04:46:16.167Z,96943.95
2019-05-21T04:50:21.075Z,96936.70
2019-05-21T04:54:25.981Z,96943.19
2019-05-21T04:58:30.895Z,96928.36
2019-05-21T05:02:35.786Z,96941.80
2019-05-21T05:06:40.687Z,96949.79
2019-05-21T05:10:45.592Z,96946.15
2019-05-21T05:14:50.495Z,96944.28
2019-05-21T05:18:55.402Z,96946.63
2019-05-21T05:23:00.294Z,96933.70
2019-05-21T05:27:05.292Z,96945.05
2019-05-21T05:31:10.197Z,96956.95
2019-05-21T05:35:15.163Z,96948.40
2019-05-21T05:39:20.070Z,96977.58
2019-05-21T05:43:24.960Z,96989.77
2019-05-21T05:47:29.857Z,96973.64
2019-05-21T05:51:34.765Z,96982.45
2019-05-21T05:55:39.667Z,96984.78
2019-05-21T05:59:44.564Z,96991.81
2019-05-21T06:03:49.464Z,96973.43
2019-05-21T06:07:59.860Z,96985.71
2019-05-21T06:12:01.043Z,96990.67
2019-05-21T06:16:05.948Z,96992.36
2019-05-21T06:20:11.394Z,96992.57
2019-05-21T06:24:16.282Z,96996.22
2019-05-21T06:28:21.192Z,97006.25
2019-05-21T06:32:26.091Z,97011.97
2019-05-21T06:36:31.176Z,97023.12
2019-05-21T06:40:38.461Z,97010.55
2019-05-21T06:44:43.142Z,97024.23
2019-05-21T06:48:48.068Z,97026.85
2019-05-21T06:52:52.963Z,97045.59
2019-05-21T06:56:57.870Z,97057.79
2019-05-21T07:01:02.787Z,97067.36
2019-05-21T07:05:07.905Z,97067.91
2019-05-21T07:09:12.815Z,97066.40
2019-05-21T07:13:17.734Z,97069.31
2019-05-21T07:17:22.651Z,97067.67
2019-05-21T07:21:27.558Z,97067.29
2019-05-21T07:25:32.523Z,97084.38
2019-05-21T07:29:37.434Z,97080.17
2019-05-21T07:33:42.339Z,97081.73
2019-05-21T07:37:47.270Z,97097.34
2019-05-21T07:41:52.174Z,97106.13
2019-05-21T07:45:57.065Z,97114.84
2019-05-21T07:50:01.975Z,97112.09
2019-05-21T07:54:07.961Z,97109.08
2019-05-21T07:58:12.859Z,97117.09
2019-05-21T08:02:17.777Z,97115.23
2019-05-21T08:06:22.673Z,97113.84
2019-05-21T08:10:27.581Z,97125.56
2019-05-21T08:14:32.485Z,97133.36
2019-05-21T08:18:37.393Z,97136.75
2019-05-21T08:22:42.302Z,97137.84
2019-05-21T08:26:47.206Z,97138.80
2019-05-21T08:30:52.233Z,97142.27
2019-05-21T08:34:57.134Z,97142.34
2019-05-21T08:39:02.115Z,97145.00
2019-05-21T08:43:07.288Z,97157.61
2019-05-21T08:47:12.189Z,97151.66
2019-05-21T08:51:17.100Z,97158.67
2019-05-21T08:55:22.013Z,97164.05
2019-05-21T08:59:26.915Z,97172.48
2019-05-21T09:03:31.815Z,97165.82
2019-05-21T09:07:36.706Z,97159.36
2019-05-21T09:11:41.913Z,97159.36
2019-05-21T09:15:46.905Z,97184.16
2019-05-21T09:19:51.795Z,97174.13
2019-05-21T09:23:56.693Z,97187.59
2019-05-21T09:28:01.576Z,97196.85
2019-05-21T09:32:06.547Z,97202.08
2019-05-21T09:36:11.440Z,97206.72
2019-05-21T09:40:18.638Z,97208.58
2019-05-21T09:44:23.567Z,97216.35
2019-05-21T09:48:28.500Z,97215.17
2019-05-21T09:52:33.373Z,97228.38
2019-05-21T09:56:38.337Z,97234.42
2019-05-21T10:00:50.643Z,97250.92
2019-05-21T10:04:55.605Z,97259.69
2019-05-21T10:09:00.497Z,97256.14
2019-05-21T10:13:07.074Z,97254.77
2019-05-21T10:17:11.973Z,97264.80
2019-05-21T10:21:16.872Z,97265.47
2019-05-21T10:25:21.766Z,97280.82
2019-05-21T10:29:26.730Z,97281.41
2019-05-21T10:33:31.742Z,97287.69
2019-05-21T10:37:36.614Z,97298.08
2019-05-21T10:41:41.511Z,97299.93
2019-05-21T10:45:46.423Z,97302.47
2019-05-21T10:49:51.398Z,97305.95
2019-05-21T10:53:56.304Z,97301.28
2019-05-21T10:58:01.200Z,97312.45
2019-05-21T11:02:23.848Z,97318.16
2019-05-21T11:06:28.995Z,97336.10
2019-05-21T11:10:33.882Z,97334.85
2019-05-21T11:14:38.865Z,97349.39
2019-05-21T11:18:43.757Z,97355.73
2019-05-21T11:22:48.666Z,97359.69
2019-05-21T11:26:53.564Z,97361.00
2019-05-21T11:30:59.512Z,97363.95
2019-05-21T11:35:06.461Z,97374.10
2019-05-21T11:39:11.415Z,97376.53
2019-05-21T11:43:16.302Z,97388.73
2019-05-21T11:47:21.205Z,97388.51
2019-05-21T11:51:26.098Z,97392.75
2019-05-21T11:55:31.077Z,97400.19
2019-05-21T11:59:35.963Z,97404.06
2019-05-21T12:03:40.871Z,97408.27
2019-05-21T12:07:45.764Z,97411.53
2019-05-21T12:11:50.657Z,97415.94
2019-05-21T12:15:55.566Z,97420.90
2019-05-21T12:20:00.451Z,97412.45
2019-05-21T12:24:05.349Z,97422.16
2019-05-21T12:28:11.224Z,97425.30
2019-05-21T12:32:20.627Z,97427.93
2019-05-21T12:36:23.119Z,97438.20
2019-05-21T12:40:28.073Z,97437.89
2019-05-21T12:44:32.976Z,97455.14
2019-05-21T12:48:37.880Z,97452.88
2019-05-21T12:52:42.776Z,97465.75
2019-05-21T12:56:47.677Z,97455.86
2019-05-21T13:00:53.397Z,97458.41
2019-05-21T13:04:58.302Z,97457.05
2019-05-21T13:09:07.801Z,97461.04
2019-05-21T13:13:11.524Z,97487.05
2019-05-21T13:17:16.409Z,97487.05
2019-05-21T13:21:21.318Z,97490.23
2019-05-21T13:25:26.275Z,97501.52
2019-05-21T13:29:31.234Z,97499.66
2019-05-21T13:33:36.144Z,97501.34
2019-05-21T13:37:42.013Z,97509.98
2019-05-21T13:41:46.919Z,97509.98
2019-05-21T13:45:51.819Z,97534.44
2019-05-21T13:49:56.718Z,97535.18
2019-05-21T13:54:01.661Z,97547.00
2019-05-21T13:58:06.579Z,97551.14
2019-05-21T14:02:13.149Z,97552.06
2019-05-21T14:06:20.235Z,97560.20
2019-05-21T14:10:24.951Z,97560.20
2019-05-21T14:14:29.834Z,97557.56
2019-05-21T14:18:34.732Z,97567.82
2019-05-21T14:22:39.637Z,97561.97
2019-05-21T14:26:44.538Z,97564.99
2019-05-21T14:30:49.433Z,97564.99
2019-05-21T14:35:01.187Z,97568.95
2019-05-21T14:39:00.923Z,97574.01
2019-05-21T14:43:06.090Z,97574.39
2019-05-21T14:47:10.996Z,97573.08
2019-05-21T14:51:15.895Z,97571.18
2019-05-21T14:55:20.793Z,97579.84
2019-05-21T14:59:26.823Z,97583.59
2019-05-21T15:03:31.727Z,97589.01
2019-05-21T15:07:36.626Z,97588.86
2019-05-21T15:11:41.531Z,97589.08
2019-05-21T15:15:46.421Z,97594.98
2019-05-21T15:19:52.975Z,97594.91
2019-05-21T15:23:57.931Z,97599.39
2019-05-21T15:28:02.843Z,97604.06
2019-05-21T15:32:07.755Z,97610.17
2019-05-21T15:36:12.663Z,97615.82
2019-05-21T15:40:18.092Z,97615.05
2019-05-21T15:44:22.998Z,97613.66
2019-05-21T15:48:27.907Z,97627.47
2019-05-21T15:52:32.815Z,97636.13
2019-05-21T15:56:37.754Z,97624.66
2019-05-21T16:00:42.642Z,97623.79
2019-05-21T16:04:47.547Z,97631.30
2019-05-21T16:08:52.474Z,97630.29
2019-05-21T16:12:57.360Z,97640.94
2019-05-21T16:17:02.321Z,97637.27
2019-05-21T16:21:07.214Z,97640.44
2019-05-21T16:25:12.849Z,97646.92
2019-05-21T16:29:17.744Z,97643.33
2019-05-21T16:33:22.640Z,97642.06
2019-05-21T16:37:27.526Z,97634.58
2019-05-21T16:41:44.152Z,97636.16
2019-05-21T16:45:39.037Z,97631.55
2019-05-21T16:49:44.203Z,97637.76
2019-05-21T16:53:49.099Z,97624.52
2019-05-21T16:57:56.286Z,97624.52
2019-05-21T17:02:00.898Z,97636.55
2019-05-21T17:06:05.857Z,97650.25
2019-05-21T17:10:12.093Z,97639.88
2019-05-21T17:14:16.989Z,97660.69
2019-05-21T17:18:21.956Z,97664.80
2019-05-21T17:22:26.867Z,97664.80
2019-05-21T17:26:31.765Z,97669.05
2019-05-21T17:30:36.659Z,97677.34
2019-05-21T17:34:41.635Z,97688.12
2019-05-21T17:38:46.516Z,97682.11
2019-05-21T17:42:51.423Z,97688.22
2019-05-21T17:46:57.397Z,97697.50
2019-05-21T17:51:02.301Z,97700.55
2019-05-21T17:55:07.942Z,97698.56
2019-05-21T17:59:13.065Z,97703.51
2019-05-21T18:03:18.497Z,97705.85
2019-05-21T18:07:24.044Z,97705.71
2019-05-21T18:11:29.211Z,97713.38
2019-05-21T18:15:34.191Z,97732.80
2019-05-21T18:19:39.350Z,97727.69
2019-05-21T18:23:44.526Z,97740.71
2019-05-21T18:27:49.504Z,97746.50
2019-05-21T18:31:54.410Z,97747.03
2019-05-21T18:35:59.395Z,97760.51
2019-05-21T18:40:08.910Z,97773.78
2019-05-21T18:44:14.063Z,97768.84
2019-05-21T18:48:18.970Z,97780.84
2019-05-21T18:52:23.873Z,97782.39
2019-05-21T18:56:28.852Z,97787.25
2019-05-21T19:00:33.742Z,97789.03
2019-05-21T19:04:38.652Z,97794.21
2019-05-21T19:08:43.559Z,97798.04
2019-05-21T19:12:48.465Z,97806.30
2019-05-21T19:16:53.378Z,97818.59
2019-05-21T19:20:58.271Z,97821.00
2019-05-21T19:25:04.653Z,97830.82
2019-05-21T19:29:09.618Z,97842.31
2019-05-21T19:33:14.679Z,97850.59
2019-05-21T19:37:19.564Z,97852.69
2019-05-21T19:41:24.519Z,97848.88
2019-05-21T19:45:31.389Z,97856.86
2019-05-21T19:49:36.101Z,97855.91
2019-05-21T19:53:41.001Z,97865.42
2019-05-21T19:57:45.969Z,97861.61
2019-05-21T20:01:52.288Z,97864.40
2019-05-21T20:05:57.575Z,97870.05
2019-05-21T20:10:02.546Z,97881.47
2019-05-21T20:14:07.721Z,97876.52
2019-05-21T20:18:13.666Z,97877.53
2019-05-21T20:22:18.757Z,97881.00
2019-05-21T20:26:24.691Z,97891.97
2019-05-21T20:30:30.325Z,97894.31
2019-05-21T20:34:35.301Z,97897.70
2019-05-21T20:38:40.713Z,97895.30
2019-05-21T20:42:46.765Z,97898.55
2019-05-21T20:46:52.697Z,97896.54
2019-05-21T20:50:58.777Z,97897.52
2019-05-21T20:55:05.053Z,97900.94
2019-05-21T20:59:10.307Z,97888.04
2019-05-21T21:03:15.370Z,97892.31
2019-05-21T21:07:20.264Z,97894.55
2019-05-21T21:11:25.538Z,97900.71
2019-05-21T21:15:31.480Z,97901.86
2019-05-21T21:19:36.397Z,97904.83
2019-05-21T21:23:42.061Z,97905.68
2019-05-21T21:27:46.956Z,97900.95
2019-05-21T21:31:51.861Z,97905.58
2019-05-21T21:35:56.834Z,97911.92
2019-05-21T21:40:02.096Z,97921.11
2019-05-21T21:44:06.969Z,97906.60
2019-05-21T21:48:12.201Z,97920.98
2019-05-21T21:52:17.494Z,97919.67
2019-05-21T21:56:22.563Z,97915.64
2019-05-21T22:00:52.814Z,97917.41
2019-05-21T22:04:59.296Z,97923.61
2019-05-21T22:09:07.020Z,97912.87
2019-05-21T22:13:13.088Z,97918.41
2019-05-21T22:17:19.604Z,97921.04
2019-05-21T22:21:24.504Z,97915.09
2019-05-21T22:25:29.986Z,97919.16
2019-05-21T22:29:34.956Z,97922.34
2019-05-21T22:33:39.917Z,97930.13
2019-05-21T22:37:44.832Z,97929.76
2019-05-21T22:41:49.981Z,97925.42
2019-05-21T22:45:54.877Z,97924.50
2019-05-21T22:49:59.788Z,97930.91
2019-05-21T22:54:04.754Z,97925.82
2019-05-21T22:58:09.654Z,97922.64
2019-05-21T23:02:16.196Z,97931.43
2019-05-21T23:06:22.033Z,97928.81
2019-05-21T23:10:26.972Z,97924.87
2019-05-21T23:14:31.825Z,97928.57
2019-05-21T23:18:38.134Z,97923.02
2019-05-21T23:22:48.999Z,97917.98
2019-05-21T23:26:54.324Z,97918.16
2019-05-21T23:30:59.761Z,97919.94
2019-05-21T23:35:06.674Z,97912.13
2019-05-21T23:39:14.993Z,97913.89
2019-05-21T23:43:19.893Z,97916.45
2019-05-21T23:47:24.799Z,97925.19
2019-05-21T23:51:29.822Z,97928.57
2019-05-21T23:55:35.153Z,97922.56
2019-05-21T23:59:40.487Z,97928.51
